Time;durP1;ratioP1;P1;durP2;ratioP2;P2;SDS_P1;SDS_P2;PMS_P1;PMS_P2;Temp;Humidity;BMP_temperature;BMP_pressure;BME280_temperature;BME280_humidity;BME280_pressure;Samples;Min_cycle;Max_cycle;Signal;HPM_P1;HPM_P2
2022/09/27 00:02:02;;;;;;;;;;;;;;;;;;5031705;28;20379;-63
2022/09/27 00:04:28;;;;;;;;;;;;;;;;;;5030530;28;19949;-63
2022/09/27 00:06:54;;;;;;;;;;;;;;;;;;5028491;28;19921;-63
2022/09/27 00:09:20;;;;;;;;;;;;;;;;;;5033465;28;19915;-63
2022/09/27 00:11:46;;;;;;;;;;;;;;;;;;5032395;28;19956;-63
2022/09/27 00:14:12;;;;;;;;;;;;;;;;;;5032876;28;19952;-63
2022/09/27 00:16:38;;;;;;;;;;;;;;;;;;5027666;28;19913;-63
2022/09/27 00:19:04;;;;;;;;;;;;;;;;;;5030978;28;20302;-63
2022/09/27 00:21:30;;;;;;;;;;;;;;;;;;5033097;28;20380;-63
2022/09/27 00:23:56;;;;;;;;;;;;;;;;;;5033156;28;19921;-63
2022/09/27 00:26:22;;;;;;;;;;;;;;;;;;5027792;28;20303;-64
2022/09/27 00:28:48;;;;;;;;;;;;;;;;;;5015240;28;19915;-63
2022/09/27 00:31:14;;;;;;;;;;;;;;;;;;5024597;28;19956;-62
2022/09/27 00:33:40;;;;;;;;;;;;;;;;;;5032966;28;19961;-63
2022/09/27 00:36:06;;;;;;;;;;;;;;;;;;5029523;28;19944;-63
2022/09/27 00:38:32;;;;;;;;;;;;;;;;;;5031176;28;19919;-63
2022/09/27 00:40:58;;;;;;;;;;;;;;;;;;5004924;28;19909;-63
2022/09/27 00:43:24;;;;;;;;;;;;;;;;;;5031041;28;20638;-64
2022/09/27 00:45:50;;;;;;;;;;;;;;;;;;5031900;28;19913;-63
2022/09/27 00:48:16;;;;;;;;;;;;;;;;;;5023066;28;19988;-63
2022/09/27 00:50:41;;;;;;;;;;;;;;;;;;5029139;28;19948;-63
2022/09/27 00:53:07;;;;;;;;;;;;;;;;;;5033601;28;19956;-63
2022/09/27 00:55:33;;;;;;;;;;;;;;;;;;5025562;28;19940;-63
2022/09/27 00:57:59;;;;;;;;;;;;;;;;;;5028635;28;19925;-63
2022/09/27 01:00:25;;;;;;;;;;;;;;;;;;5008855;28;19966;-66
2022/09/27 01:02:51;;;;;;;;;;;;;;;;;;5022180;28;19953;-66
2022/09/27 01:05:17;;;;;;;;;;;;;;;;;;5026515;28;20368;-66
2022/09/27 01:07:43;;;;;;;;;;;;;;;;;;5019089;28;19916;-66
2022/09/27 01:10:09;;;;;;;;;;;;;;;;;;5031314;28;20288;-66
2022/09/27 01:12:34;;;;;;;;;;;;;;;;;;5028838;28;19967;-67
2022/09/27 01:15:00;;;;;;;;;;;;;;;;;;5023385;28;19917;-65
2022/09/27 01:17:27;;;;;;;;;;;;;;;;;;5012765;28;19908;-66
2022/09/27 01:19:53;;;;;;;;;;;;;;;;;;5030296;28;20012;-66
2022/09/27 01:22:18;;;;;;;;;;;;;;;;;;5030816;28;20123;-66
2022/09/27 01:24:44;;;;;;;;;;;;;;;;;;5027301;28;20274;-66
2022/09/27 01:27:10;;;;;;;;;;;;;;;;;;5030413;28;19948;-67
2022/09/27 01:29:36;;;;;;;;;;;;;;;;;;5025223;28;20274;-62
2022/09/27 01:32:02;;;;;;;;;;;;;;;;;;5027537;28;19915;-66
2022/09/27 01:34:28;;;;;;;;;;;;;;;;;;5031695;28;19949;-66
2022/09/27 01:36:54;;;;;;;;;;;;;;;;;;5031551;28;19960;-66
2022/09/27 01:39:20;;;;;;;;;;;;;;;;;;5029137;28;20468;-67
2022/09/27 01:41:46;;;;;;;;;;;;;;;;;;5025848;28;20003;-66
2022/09/27 01:44:12;;;;;;;;;;;;;;;;;;5030310;28;20421;-66
2022/09/27 01:46:38;;;;;;;;;;;;;;;;;;5026370;28;19916;-66
2022/09/27 01:49:04;;;;;;;;;;;;;;;;;;5030135;28;19944;-66
2022/09/27 01:51:30;;;;;;;;;;;;;;;;;;5029593;28;19992;-66
2022/09/27 01:53:56;;;;;;;;;;;;;;;;;;5024877;28;20398;-66
2022/09/27 01:56:22;;;;;;;;;;;;;;;;;;5023172;28;20363;-66
2022/09/27 01:58:48;;;;;;;;;;;;;;;;;;5027405;28;19915;-65
2022/09/27 02:01:13;;;;;;;;;;;;;;;;;;5028354;28;19917;-66
2022/09/27 02:03:40;;;;;;;;;;;;;;;;;;5030986;28;19956;-64
2022/09/27 02:06:05;;;;;;;;;;;;;;;;;;5030722;28;19909;-66
2022/09/27 02:08:31;;;;;;;;;;;;;;;;;;5028761;28;20014;-65
2022/09/27 02:10:57;;;;;;;;;;;;;;;;;;5029721;28;20367;-66
2022/09/27 02:13:23;;;;;;;;;;;;;;;;;;5026851;28;19972;-66
2022/09/27 02:15:49;;;;;;;;;;;;;;;;;;5029556;28;20403;-66
2022/09/27 02:18:15;;;;;;;;;;;;;;;;;;5024157;28;19914;-66
2022/09/27 02:20:41;;;;;;;;;;;;;;;;;;5029213;28;19964;-66
2022/09/27 02:23:07;;;;;;;;;;;;;;;;;;5026677;28;19924;-66
2022/09/27 02:25:33;;;;;;;;;;;;;;;;;;5027612;28;19920;-65
2022/09/27 02:27:59;;;;;;;;;;;;;;;;;;5029935;28;19912;-66
2022/09/27 02:30:25;;;;;;;;;;;;;;;;;;5024557;28;19916;-66
2022/09/27 02:32:51;;;;;;;;;;;;;;;;;;5029263;28;19913;-66
2022/09/27 02:35:17;;;;;;;;;;;;;;;;;;5026472;28;20783;-66
2022/09/27 02:37:43;;;;;;;;;;;;;;;;;;5030327;28;20254;-66
2022/09/27 02:40:09;;;;;;;;;;;;;;;;;;5028743;28;19949;-66
2022/09/27 02:42:34;;;;;;;;;;;;;;;;;;5027701;28;20004;-65
2022/09/27 02:45:00;;;;;;;;;;;;;;;;;;5028404;28;19909;-66
2022/09/27 02:47:26;;;;;;;;;;;;;;;;;;5029725;28;19992;-66
2022/09/27 02:49:52;;;;;;;;;;;;;;;;;;5026130;28;19913;-67
2022/09/27 02:52:18;;;;;;;;;;;;;;;;;;5029378;28;19909;-66
2022/09/27 02:54:44;;;;;;;;;;;;;;;;;;5027973;28;19948;-66
2022/09/27 02:57:10;;;;;;;;;;;;;;;;;;5029179;28;20061;-65
2022/09/27 02:59:36;;;;;;;;;;;;;;;;;;5028600;28;19963;-67
2022/09/27 03:02:02;;;;;;;;;;;;;;;;;;5026406;28;19917;-64
2022/09/27 03:04:27;;;;;;;;;;;;;;;;;;5022708;28;19984;-66
2022/09/27 03:06:53;;;;;;;;;;;;;;;;;;5030081;28;20041;-66
2022/09/27 03:09:19;;;;;;;;;;;;;;;;;;5029444;28;19913;-67
2022/09/27 03:11:45;;;;;;;;;;;;;;;;;;5025795;28;20051;-67
2022/09/27 03:14:11;;;;;;;;;;;;;;;;;;5026253;28;19963;-66
2022/09/27 03:16:37;;;;;;;;;;;;;;;;;;5029190;28;19948;-66
2022/09/27 03:19:03;;;;;;;;;;;;;;;;;;5028576;28;19952;-66
2022/09/27 03:21:29;;;;;;;;;;;;;;;;;;5025052;28;19987;-67
2022/09/27 03:23:55;;;;;;;;;;;;;;;;;;5027513;28;19916;-64
2022/09/27 03:26:21;;;;;;;;;;;;;;;;;;5024419;28;20002;-66
2022/09/27 03:28:47;;;;;;;;;;;;;;;;;;5027981;28;19909;-66
2022/09/27 03:31:13;;;;;;;;;;;;;;;;;;5020030;28;20278;-66
2022/09/27 03:33:39;;;;;;;;;;;;;;;;;;5027695;28;19916;-66
2022/09/27 03:36:05;;;;;;;;;;;;;;;;;;5028877;28;19912;-67
2022/09/27 03:38:31;;;;;;;;;;;;;;;;;;5029445;28;19963;-67
2022/09/27 03:40:57;;;;;;;;;;;;;;;;;;5024136;28;19983;-67
2022/09/27 03:43:23;;;;;;;;;;;;;;;;;;5029044;28;19920;-67
2022/09/27 03:45:49;;;;;;;;;;;;;;;;;;5025233;28;19959;-66
2022/09/27 03:48:15;;;;;;;;;;;;;;;;;;5026705;28;19913;-67
2022/09/27 03:50:41;;;;;;;;;;;;;;;;;;5026461;28;20019;-66
2022/09/27 03:53:07;;;;;;;;;;;;;;;;;;5027977;28;19962;-67
2022/09/27 03:55:34;;;;;;;;;;;;;;;;;;5022830;28;19999;-65
2022/09/27 03:58:00;;;;;;;;;;;;;;;;;;5023138;28;20063;-67
2022/09/27 04:00:26;;;;;;;;;;;;;;;;;;5026360;28;20448;-66
2022/09/27 04:02:51;;;;;;;;;;;;;;;;;;5025003;28;19949;-67
2022/09/27 04:05:18;;;;;;;;;;;;;;;;;;5027908;28;19959;-66
2022/09/27 04:07:44;;;;;;;;;;;;;;;;;;5027690;28;19924;-66
2022/09/27 04:10:10;;;;;;;;;;;;;;;;;;5029172;28;20083;-67
2022/09/27 04:12:35;;;;;;;;;;;;;;;;;;5031490;28;20394;-66
2022/09/27 04:15:01;;;;;;;;;;;;;;;;;;5031084;28;19909;-67
2022/09/27 04:17:27;;;;;;;;;;;;;;;;;;5022096;28;20508;-67
2022/09/27 04:19:53;;;;;;;;;;;;;;;;;;5028763;28;20007;-67
2022/09/27 04:22:19;;;;;;;;;;;;;;;;;;5027401;28;20361;-67
2022/09/27 04:24:45;;;;;;;;;;;;;;;;;;5029407;28;19955;-67
2022/09/27 04:27:11;;;;;;;;;;;;;;;;;;5031261;28;19944;-67
2022/09/27 04:29:41;;;;;;;;;;;;;;;;;;5028163;28;20005;-68
2022/09/27 04:32:07;;;;;;;;;;;;;;;;;;5024646;28;20027;-67
2022/09/27 04:37:17;;;;;;;;;;;;;;;;;;5023003;28;20288;-68
2022/09/27 04:39:43;;;;;;;;;;;;;;;;;;5023471;28;19940;-65
2022/09/27 04:42:09;;;;;;;;;;;;;;;;;;5029146;28;19940;-68
2022/09/27 04:44:35;;;;;;;;;;;;;;;;;;5029556;28;20322;-67
2022/09/27 04:47:01;;;;;;;;;;;;;;;;;;5027179;28;19996;-68
2022/09/27 04:49:27;;;;;;;;;;;;;;;;;;5022738;28;19917;-68
2022/09/27 04:51:53;;;;;;;;;;;;;;;;;;5021701;28;20016;-69
2022/09/27 04:54:19;;;;;;;;;;;;;;;;;;5006390;28;20453;-68
2022/09/27 04:56:44;;;;;;;;;;;;;;;;;;5028918;28;19966;-67
2022/09/27 04:59:10;;;;;;;;;;;;;;;;;;5029585;28;19937;-67
2022/09/27 05:01:36;;;;;;;;;;;;;;;;;;5027333;28;19915;-68
2022/09/27 05:04:02;;;;;;;;;;;;;;;;;;5030038;28;19956;-68
2022/09/27 05:06:28;;;;;;;;;;;;;;;;;;5030009;28;19948;-68
2022/09/27 05:08:54;;;;;;;;;;;;;;;;;;5028594;28;19920;-67
2022/09/27 05:11:21;;;;;;;;;;;;;;;;;;5024892;28;19909;-68
2022/09/27 05:13:47;;;;;;;;;;;;;;;;;;5024658;28;20027;-68
2022/09/27 05:16:13;;;;;;;;;;;;;;;;;;5028631;28;20028;-67
2022/09/27 05:18:38;;;;;;;;;;;;;;;;;;5023981;28;19941;-67
2022/09/27 05:21:04;;;;;;;;;;;;;;;;;;5001612;28;19917;-68
2022/09/27 05:23:31;;;;;;;;;;;;;;;;;;5029526;28;20284;-69
2022/09/27 05:25:57;;;;;;;;;;;;;;;;;;5032493;28;19940;-68
2022/09/27 05:28:23;;;;;;;;;;;;;;;;;;5014698;28;20012;-68
2022/09/27 05:30:49;;;;;;;;;;;;;;;;;;5031561;28;20308;-68
2022/09/27 05:33:15;;;;;;;;;;;;;;;;;;5032281;28;19913;-68
2022/09/27 05:35:41;;;;;;;;;;;;;;;;;;5030725;28;19978;-68
2022/09/27 05:38:07;;;;;;;;;;;;;;;;;;5030431;28;20411;-68
2022/09/27 05:40:33;;;;;;;;;;;;;;;;;;5029695;28;19913;-68
2022/09/27 05:42:59;;;;;;;;;;;;;;;;;;5029517;28;19955;-69
2022/09/27 05:45:25;;;;;;;;;;;;;;;;;;5031133;28;20379;-68
2022/09/27 05:47:51;;;;;;;;;;;;;;;;;;5032194;28;20000;-68
2022/09/27 05:50:17;;;;;;;;;;;;;;;;;;5030396;28;19940;-68
2022/09/27 05:52:43;;;;;;;;;;;;;;;;;;5028298;28;20276;-68
2022/09/27 05:55:09;;;;;;;;;;;;;;;;;;5024680;28;19915;-69
2022/09/27 05:57:35;;;;;;;;;;;;;;;;;;5028287;28;19909;-67
2022/09/27 06:00:01;;;;;;;;;;;;;;;;;;5027284;28;19915;-68
2022/09/27 06:02:27;;;;;;;;;;;;;;;;;;5025876;28;19944;-68
2022/09/27 06:04:53;;;;;;;;;;;;;;;;;;5016308;28;19992;-68
2022/09/27 06:07:19;;;;;;;;;;;;;;;;;;5025132;28;19944;-68
2022/09/27 06:09:45;;;;;;;;;;;;;;;;;;5028478;28;20343;-69
2022/09/27 06:12:12;;;;;;;;;;;;;;;;;;5031042;28;20380;-67
2022/09/27 06:14:39;;;;;;;;;;;;;;;;;;5030912;28;19909;-68
2022/09/27 06:17:05;;;;;;;;;;;;;;;;;;5032252;28;20345;-68
2022/09/27 06:19:31;;;;;;;;;;;;;;;;;;5030942;28;20015;-68
2022/09/27 06:21:57;;;;;;;;;;;;;;;;;;5029366;28;19980;-69
2022/09/27 06:24:22;;;;;;;;;;;;;;;;;;5029733;28;19971;-68
2022/09/27 06:26:48;;;;;;;;;;;;;;;;;;5024045;28;19936;-68
2022/09/27 06:29:14;;;;;;;;;;;;;;;;;;5029066;28;19935;-68
2022/09/27 06:31:40;;;;;;;;;;;;;;;;;;5031500;28;19949;-68
2022/09/27 06:34:07;;;;;;;;;;;;;;;;;;5030759;28;20377;-68
2022/09/27 06:36:33;;;;;;;;;;;;;;;;;;5027787;28;21888;-68
2022/09/27 06:39:00;;;;;;;;;;;;;;;;;;5025270;28;19980;-68
2022/09/27 06:41:26;;;;;;;;;;;;;;;;;;5031276;28;19909;-67
2022/09/27 06:43:52;;;;;;;;;;;;;;;;;;5025280;28;19948;-69
2022/09/27 06:46:18;;;;;;;;;;;;;;;;;;5031332;28;19951;-68
2022/09/27 06:48:44;;;;;;;;;;;;;;;;;;5030124;28;19913;-67
2022/09/27 06:51:10;;;;;;;;;;;;;;;;;;5030048;28;19948;-68
2022/09/27 06:53:35;;;;;;;;;;;;;;;;;;5029264;28;20250;-67
2022/09/27 06:56:01;;;;;;;;;;;;;;;;;;5025040;28;19963;-67
2022/09/27 07:01:12;;;;;;;;;;;;;;;;;;5021725;28;19916;-69
2022/09/27 07:03:40;;;;;;;;;;;;;;;;;;5028979;28;20380;-69
2022/09/27 07:06:06;;;;;;;;;;;;;;;;;;5027207;28;19909;-70
2022/09/27 07:08:32;;;;;;;;;;;;;;;;;;5029763;28;19962;-69
2022/09/27 07:10:58;;;;;;;;;;;;;;;;;;5028918;28;20328;-69
2022/09/27 07:13:25;;;;;;;;;;;;;;;;;;5024543;28;19913;-69
2022/09/27 07:15:51;;;;;;;;;;;;;;;;;;5027706;28;19915;-68
2022/09/27 07:18:17;;;;;;;;;;;;;;;;;;5025611;28;19920;-68
2022/09/27 07:20:43;;;;;;;;;;;;;;;;;;5029169;28;19959;-69
2022/09/27 07:23:09;;;;;;;;;;;;;;;;;;5030332;28;19967;-69
2022/09/27 07:25:35;;;;;;;;;;;;;;;;;;5025832;28;20275;-69
2022/09/27 07:28:01;;;;;;;;;;;;;;;;;;5026854;28;19915;-68
2022/09/27 07:30:27;;;;;;;;;;;;;;;;;;5028549;28;20425;-69
2022/09/27 07:32:53;;;;;;;;;;;;;;;;;;5026214;28;19944;-69
2022/09/27 07:35:19;;;;;;;;;;;;;;;;;;5030195;28;20000;-69
2022/09/27 07:37:45;;;;;;;;;;;;;;;;;;5025899;28;20430;-69
2022/09/27 07:40:11;;;;;;;;;;;;;;;;;;5027748;28;19940;-69
2022/09/27 07:42:37;;;;;;;;;;;;;;;;;;5024493;28;19956;-69
2022/09/27 07:45:03;;;;;;;;;;;;;;;;;;5031732;28;19915;-68
2022/09/27 07:47:29;;;;;;;;;;;;;;;;;;5034269;28;19988;-68
2022/09/27 07:49:55;;;;;;;;;;;;;;;;;;5033112;28;19905;-68
2022/09/27 07:52:21;;;;;;;;;;;;;;;;;;5015052;28;19909;-69
2022/09/27 07:54:47;;;;;;;;;;;;;;;;;;5031301;28;20318;-68
2022/09/27 07:57:13;;;;;;;;;;;;;;;;;;5029473;28;20007;-69
2022/09/27 07:59:39;;;;;;;;;;;;;;;;;;5032661;28;20372;-65
2022/09/27 08:02:05;;;;;;;;;;;;;;;;;;5033615;28;20379;-68
2022/09/27 08:04:31;;;;;;;;;;;;;;;;;;5014120;28;20000;-68
2022/09/27 08:06:57;;;;;;;;;;;;;;;;;;5029729;28;20308;-68
2022/09/27 08:09:25;;;;;;;;;;;;;;;;;;5031268;28;19919;-66
2022/09/27 08:11:51;;;;;;;;;;;;;;;;;;5029729;28;19936;-67
2022/09/27 08:14:17;;;;;;;;;;;;;;;;;;5031260;28;19949;-67
2022/09/27 08:16:43;;;;;;;;;;;;;;;;;;5034677;28;19909;-68
2022/09/27 08:19:10;;;;;;;;;;;;;;;;;;5034332;28;20297;-68
2022/09/27 08:21:36;;;;;;;;;;;;;;;;;;5034167;28;19943;-68
2022/09/27 08:24:02;;;;;;;;;;;;;;;;;;5033617;28;19964;-69
2022/09/27 08:26:28;;;;;;;;;;;;;;;;;;5033145;28;19955;-68
2022/09/27 08:28:54;;;;;;;;;;;;;;;;;;5033422;28;19913;-68
2022/09/27 08:31:20;;;;;;;;;;;;;;;;;;5031635;28;20378;-68
2022/09/27 08:33:46;;;;;;;;;;;;;;;;;;5034180;28;19909;-68
2022/09/27 08:36:12;;;;;;;;;;;;;;;;;;5034337;28;20382;-68
2022/09/27 08:38:38;;;;;;;;;;;;;;;;;;5032771;28;19997;-67
2022/09/27 08:41:04;;;;;;;;;;;;;;;;;;5030433;28;19913;-68
2022/09/27 08:43:30;;;;;;;;;;;;;;;;;;5033910;28;20376;-68
2022/09/27 08:45:56;;;;;;;;;;;;;;;;;;5033303;28;19941;-69
2022/09/27 08:48:22;;;;;;;;;;;;;;;;;;5034067;28;20355;-68
2022/09/27 08:50:48;;;;;;;;;;;;;;;;;;5033680;28;19912;-68
2022/09/27 08:53:14;;;;;;;;;;;;;;;;;;5032332;28;20371;-68
2022/09/27 08:55:40;;;;;;;;;;;;;;;;;;5032458;28;19932;-68
2022/09/27 08:58:06;;;;;;;;;;;;;;;;;;5033039;28;19963;-68
2022/09/27 09:00:32;;;;;;;;;;;;;;;;;;5033393;28;19944;-68
2022/09/27 09:02:58;;;;;;;;;;;;;;;;;;5030786;28;19996;-68
2022/09/27 09:05:24;;;;;;;;;;;;;;;;;;5030665;28;20007;-68
2022/09/27 09:07:50;;;;;;;;;;;;;;;;;;5031497;28;20436;-68
2022/09/27 09:12:45;;;;;;;;;;;;;;;;;;5022788;28;19932;-68
2022/09/27 09:13:02;;;;;;;;;;;;;;;;;;5031886;28;19996;-68
2022/09/27 09:15:28;;;;;;;;;;;;;;;;;;5033596;28;19909;-68
2022/09/27 09:17:54;;;;;;;;;;;;;;;;;;5033596;28;19956;-67
2022/09/27 09:20:20;;;;;;;;;;;;;;;;;;5031910;28;19917;-68
2022/09/27 09:22:47;;;;;;;;;;;;;;;;;;5028943;28;19920;-68
2022/09/27 09:25:14;;;;;;;;;;;;;;;;;;5014847;28;19955;-68
2022/09/27 09:27:40;;;;;;;;;;;;;;;;;;5033418;28;19916;-68
2022/09/27 09:30:06;;;;;;;;;;;;;;;;;;5032824;28;19905;-68
2022/09/27 09:32:32;;;;;;;;;;;;;;;;;;5032220;28;19955;-68
2022/09/27 09:34:57;;;;;;;;;;;;;;;;;;5031466;28;19909;-67
2022/09/27 09:37:23;;;;;;;;;;;;;;;;;;5030689;28;19916;-67
2022/09/27 09:39:50;;;;;;;;;;;;;;;;;;5031842;28;19909;-67
2022/09/27 09:42:17;;;;;;;;;;;;;;;;;;5033010;28;19905;-68
2022/09/27 09:44:44;;;;;;;;;;;;;;;;;;5012197;28;20411;-68
2022/09/27 09:47:10;;;;;;;;;;;;;;;;;;5031932;28;20372;-67
2022/09/27 09:49:36;;;;;;;;;;;;;;;;;;5032349;28;19976;-67
2022/09/27 09:52:01;;;;;;;;;;;;;;;;;;5032581;28;19948;-65
2022/09/27 09:54:28;;;;;;;;;;;;;;;;;;5032661;28;19905;-67
2022/09/27 09:56:53;;;;;;;;;;;;;;;;;;5031258;28;19915;-67
2022/09/27 09:59:19;;;;;;;;;;;;;;;;;;5032683;28;19909;-68
2022/09/27 10:01:46;;;;;;;;;;;;;;;;;;5030684;28;20429;-68
2022/09/27 10:04:12;;;;;;;;;;;;;;;;;;5031189;28;19912;-67
2022/09/27 10:06:38;;;;;;;;;;;;;;;;;;5026542;28;19956;-67
2022/09/27 10:09:04;;;;;;;;;;;;;;;;;;5031913;28;20357;-67
2022/09/27 10:11:30;;;;;;;;;;;;;;;;;;5031433;28;20383;-67
2022/09/27 10:13:56;;;;;;;;;;;;;;;;;;5028290;28;19909;-67
2022/09/27 10:16:22;;;;;;;;;;;;;;;;;;5031246;28;20349;-67
2022/09/27 10:18:48;;;;;;;;;;;;;;;;;;5032081;28;20276;-67
2022/09/27 10:21:14;;;;;;;;;;;;;;;;;;5030699;28;19919;-66
2022/09/27 10:23:39;;;;;;;;;;;;;;;;;;5032205;28;19916;-67
2022/09/27 10:26:07;;;;;;;;;;;;;;;;;;5014495;28;19905;-67
2022/09/27 10:28:33;;;;;;;;;;;;;;;;;;5031311;28;20292;-64
2022/09/27 10:30:59;;;;;;;;;;;;;;;;;;5027946;28;19996;-67
2022/09/27 10:33:26;;;;;;;;;;;;;;;;;;5030989;28;20312;-67
2022/09/27 10:35:52;;;;;;;;;;;;;;;;;;5031735;28;19905;-65
2022/09/27 10:38:19;;;;;;;;;;;;;;;;;;5020936;28;19951;-66
2022/09/27 10:40:45;;;;;;;;;;;;;;;;;;5031784;28;20026;-67
2022/09/27 10:43:11;;;;;;;;;;;;;;;;;;5021175;28;20016;-66
2022/09/27 10:45:37;;;;;;;;;;;;;;;;;;5012868;28;19916;-66
2022/09/27 10:48:03;;;;;;;;;;;;;;;;;;5028634;28;19913;-66
2022/09/27 10:50:30;;;;;;;;;;;;;;;;;;5025626;28;19964;-66
2022/09/27 10:52:55;;;;;;;;;;;;;;;;;;5030086;28;19917;-66
2022/09/27 10:55:21;;;;;;;;;;;;;;;;;;5030814;28;20324;-67
2022/09/27 10:57:47;;;;;;;;;;;;;;;;;;5031708;28;19905;-65
2022/09/27 11:00:15;;;;;;;;;;;;;;;;;;5025717;28;19931;-66
2022/09/27 11:02:41;;;;;;;;;;;;;;;;;;5027620;28;19924;-66
2022/09/27 11:05:07;;;;;;;;;;;;;;;;;;5031562;28;19909;-65
2022/09/27 11:07:33;;;;;;;;;;;;;;;;;;5030702;28;19909;-66
2022/09/27 11:10:02;;;;;;;;;;;;;;;;;;5025119;28;20410;-66
2022/09/27 11:12:29;;;;;;;;;;;;;;;;;;5031455;28;19905;-66
2022/09/27 11:14:55;;;;;;;;;;;;;;;;;;5031417;28;19913;-66
2022/09/27 11:17:21;;;;;;;;;;;;;;;;;;5033423;28;20026;-66
2022/09/27 11:19:47;;;;;;;;;;;;;;;;;;5035268;28;19960;-65
2022/09/27 11:22:13;;;;;;;;;;;;;;;;;;5035573;28;20326;-68
2022/09/27 11:24:39;;;;;;;;;;;;;;;;;;5012415;28;20392;-66
2022/09/27 11:27:05;;;;;;;;;;;;;;;;;;5034058;28;19967;-68
2022/09/27 11:29:31;;;;;;;;;;;;;;;;;;5034660;28;20002;-69
2022/09/27 11:31:56;;;;;;;;;;;;;;;;;;5026405;28;19917;-69
2022/09/27 11:34:22;;;;;;;;;;;;;;;;;;5035478;28;19912;-69
2022/09/27 11:36:48;;;;;;;;;;;;;;;;;;5034111;28;19960;-69
2022/09/27 11:39:14;;;;;;;;;;;;;;;;;;5016447;28;20000;-68
2022/09/27 11:41:40;;;;;;;;;;;;;;;;;;5028036;28;19992;-69
2022/09/27 11:44:06;;;;;;;;;;;;;;;;;;5034568;28;20285;-70
2022/09/27 11:46:32;;;;;;;;;;;;;;;;;;5028700;28;19913;-68
2022/09/27 11:48:58;;;;;;;;;;;;;;;;;;5030787;28;19913;-68
2022/09/27 11:51:25;;;;;;;;;;;;;;;;;;5029353;28;19916;-69
2022/09/27 11:53:51;;;;;;;;;;;;;;;;;;5012369;28;19916;-69
2022/09/27 11:56:17;;;;;;;;;;;;;;;;;;5023898;28;19905;-69
2022/09/27 11:58:43;;;;;;;;;;;;;;;;;;5020507;28;20039;-69
2022/09/27 12:01:09;;;;;;;;;;;;;;;;;;5029820;28;19908;-68
2022/09/27 12:03:35;;;;;;;;;;;;;;;;;;5034844;28;19956;-69
2022/09/27 12:06:01;;;;;;;;;;;;;;;;;;5034807;28;19996;-68
2022/09/27 12:08:27;;;;;;;;;;;;;;;;;;5034821;28;20331;-66
2022/09/27 12:10:52;;;;;;;;;;;;;;;;;;5034214;28;19951;-66
2022/09/27 12:13:18;;;;;;;;;;;;;;;;;;5028482;28;19915;-68
2022/09/27 12:15:44;;;;;;;;;;;;;;;;;;5031198;28;20448;-70
2022/09/27 12:18:11;;;;;;;;;;;;;;;;;;5034726;28;19958;-69
2022/09/27 12:20:36;;;;;;;;;;;;;;;;;;5027747;28;19917;-69
2022/09/27 12:23:02;;;;;;;;;;;;;;;;;;5028639;28;19968;-70
2022/09/27 12:25:28;;;;;;;;;;;;;;;;;;5032476;28;20327;-69
2022/09/27 12:27:54;;;;;;;;;;;;;;;;;;5033159;28;19912;-70
2022/09/27 12:30:20;;;;;;;;;;;;;;;;;;5025467;28;20332;-70
2022/09/27 12:32:46;;;;;;;;;;;;;;;;;;5026236;28;19956;-69
2022/09/27 12:35:12;;;;;;;;;;;;;;;;;;5032667;28;19912;-69
2022/09/27 12:37:38;;;;;;;;;;;;;;;;;;5025466;28;20387;-69
2022/09/27 12:40:05;;;;;;;;;;;;;;;;;;5028602;28;20033;-67
2022/09/27 12:42:31;;;;;;;;;;;;;;;;;;5029905;28;19917;-67
2022/09/27 12:44:56;;;;;;;;;;;;;;;;;;5025538;28;19952;-69
2022/09/27 12:47:22;;;;;;;;;;;;;;;;;;5022663;28;20284;-67
2022/09/27 12:49:48;;;;;;;;;;;;;;;;;;5023309;28;19915;-68
2022/09/27 12:52:20;;;;;;;;;;;;;;;;;;5024904;28;19964;-69
2022/09/27 12:54:47;;;;;;;;;;;;;;;;;;5007791;28;19920;-69
2022/09/27 12:57:13;;;;;;;;;;;;;;;;;;5027258;28;20245;-69
2022/09/27 12:59:39;;;;;;;;;;;;;;;;;;5024601;28;20004;-66
2022/09/27 13:02:05;;;;;;;;;;;;;;;;;;5024221;28;19963;-68
2022/09/27 13:04:31;;;;;;;;;;;;;;;;;;5022888;28;19967;-68
2022/09/27 13:06:57;;;;;;;;;;;;;;;;;;5022971;28;20272;-69
2022/09/27 13:09:23;;;;;;;;;;;;;;;;;;5024021;28;20395;-68
2022/09/27 13:11:49;;;;;;;;;;;;;;;;;;5021280;28;19975;-68
2022/09/27 13:14:14;;;;;;;;;;;;;;;;;;5033289;28;19932;-68
2022/09/27 13:16:40;;;;;;;;;;;;;;;;;;5033323;28;19983;-68
2022/09/27 13:19:06;;;;;;;;;;;;;;;;;;5028131;28;19917;-68
2022/09/27 13:21:32;;;;;;;;;;;;;;;;;;5029454;28;19917;-68
2022/09/27 13:23:58;;;;;;;;;;;;;;;;;;5031715;28;19956;-68
2022/09/27 13:26:24;;;;;;;;;;;;;;;;;;5023665;28;20387;-68
2022/09/27 13:28:50;;;;;;;;;;;;;;;;;;5028994;28;20353;-68
2022/09/27 13:31:16;;;;;;;;;;;;;;;;;;5031223;28;19952;-68
2022/09/27 13:33:42;;;;;;;;;;;;;;;;;;5026799;28;20007;-68
2022/09/27 13:36:08;;;;;;;;;;;;;;;;;;5026380;28;20369;-68
2022/09/27 13:38:34;;;;;;;;;;;;;;;;;;5024752;28;20054;-68
2022/09/27 13:41:00;;;;;;;;;;;;;;;;;;5031856;28;19960;-68
2022/09/27 13:43:27;;;;;;;;;;;;;;;;;;5031883;28;19913;-68
2022/09/27 13:45:54;;;;;;;;;;;;;;;;;;5031146;28;20383;-68
2022/09/27 13:48:19;;;;;;;;;;;;;;;;;;5025667;28;19913;-67
2022/09/27 13:50:45;;;;;;;;;;;;;;;;;;5028019;28;20410;-68
2022/09/27 13:53:11;;;;;;;;;;;;;;;;;;5027652;28;19912;-68
2022/09/27 13:55:39;;;;;;;;;;;;;;;;;;5025270;28;19999;-66
2022/09/27 13:58:05;;;;;;;;;;;;;;;;;;5020321;28;19971;-69
2022/09/27 14:00:30;;;;;;;;;;;;;;;;;;5026112;28;19912;-68
2022/09/27 14:02:56;;;;;;;;;;;;;;;;;;5027692;28;19995;-69
2022/09/27 14:05:22;;;;;;;;;;;;;;;;;;5031666;28;19909;-69
2022/09/27 14:07:48;;;;;;;;;;;;;;;;;;5028469;28;19913;-67
2022/09/27 14:10:14;;;;;;;;;;;;;;;;;;5030778;28;19972;-67
2022/09/27 14:12:40;;;;;;;;;;;;;;;;;;5032468;28;20384;-68
2022/09/27 14:15:06;;;;;;;;;;;;;;;;;;5030864;28;20360;-68
2022/09/27 14:17:32;;;;;;;;;;;;;;;;;;5022528;28;19944;-65
2022/09/27 14:19:58;;;;;;;;;;;;;;;;;;5031217;28;19913;-68
2022/09/27 14:22:24;;;;;;;;;;;;;;;;;;5032066;28;20388;-68
2022/09/27 14:24:50;;;;;;;;;;;;;;;;;;5032125;28;20353;-68
2022/09/27 14:27:16;;;;;;;;;;;;;;;;;;5031494;28;20360;-67
2022/09/27 14:29:43;;;;;;;;;;;;;;;;;;5030009;28;19927;-67
2022/09/27 14:32:09;;;;;;;;;;;;;;;;;;5027245;28;19909;-68
2022/09/27 14:34:35;;;;;;;;;;;;;;;;;;5026031;28;19918;-68
2022/09/27 14:39:45;;;;;;;;;;;;;;;;;;5030776;28;19979;-68
2022/09/27 14:42:11;;;;;;;;;;;;;;;;;;5031412;28;19905;-67
2022/09/27 14:44:37;;;;;;;;;;;;;;;;;;5027742;28;20031;-68
2022/09/27 14:47:03;;;;;;;;;;;;;;;;;;5029349;28;19909;-68
2022/09/27 14:49:29;;;;;;;;;;;;;;;;;;5023327;28;20397;-68
2022/09/27 14:51:55;;;;;;;;;;;;;;;;;;5027138;28;19923;-68
2022/09/27 14:54:21;;;;;;;;;;;;;;;;;;5027074;28;20303;-67
2022/09/27 14:56:47;;;;;;;;;;;;;;;;;;5030209;28;20422;-67
2022/09/27 14:59:13;;;;;;;;;;;;;;;;;;5020446;28;20403;-68
2022/09/27 15:01:39;;;;;;;;;;;;;;;;;;5024224;28;19909;-67
2022/09/27 15:04:05;;;;;;;;;;;;;;;;;;5010388;28;19921;-66
2022/09/27 15:06:30;;;;;;;;;;;;;;;;;;5024460;28;19937;-68
2022/09/27 15:08:56;;;;;;;;;;;;;;;;;;5024524;28;20003;-67
2022/09/27 15:11:23;;;;;;;;;;;;;;;;;;5029431;28;19978;-67
2022/09/27 15:13:50;;;;;;;;;;;;;;;;;;5028009;28;19916;-67
2022/09/27 15:16:18;;;;;;;;;;;;;;;;;;5027365;28;19913;-67
2022/09/27 15:18:45;;;;;;;;;;;;;;;;;;5026972;28;19955;-68
2022/09/27 15:21:11;;;;;;;;;;;;;;;;;;5028469;28;19924;-68
2022/09/27 15:23:37;;;;;;;;;;;;;;;;;;5031307;28;19949;-67
2022/09/27 15:26:03;;;;;;;;;;;;;;;;;;5030565;28;20416;-68
2022/09/27 15:28:29;;;;;;;;;;;;;;;;;;5030873;28;20018;-68
2022/09/27 15:30:55;;;;;;;;;;;;;;;;;;5030020;28;19909;-69
2022/09/27 15:33:21;;;;;;;;;;;;;;;;;;5031311;28;19915;-69
2022/09/27 15:35:48;;;;;;;;;;;;;;;;;;5029863;28;19913;-69
2022/09/27 15:38:14;;;;;;;;;;;;;;;;;;5031591;28;19912;-69
2022/09/27 15:40:41;;;;;;;;;;;;;;;;;;5029375;28;19909;-70
2022/09/27 15:43:07;;;;;;;;;;;;;;;;;;5031216;28;20402;-69
2022/09/27 15:45:33;;;;;;;;;;;;;;;;;;5029996;28;19948;-68
2022/09/27 15:47:59;;;;;;;;;;;;;;;;;;5030482;28;19935;-70
2022/09/27 15:50:25;;;;;;;;;;;;;;;;;;5023533;28;19945;-70
2022/09/27 15:52:51;;;;;;;;;;;;;;;;;;5026033;28;20415;-70
2022/09/27 15:55:17;;;;;;;;;;;;;;;;;;5031099;28;19909;-69
2022/09/27 15:57:43;;;;;;;;;;;;;;;;;;5028110;28;19932;-69
2022/09/27 16:00:09;;;;;;;;;;;;;;;;;;5028884;28;20414;-69
2022/09/27 16:02:35;;;;;;;;;;;;;;;;;;5032282;28;19960;-69
2022/09/27 16:05:01;;;;;;;;;;;;;;;;;;5033977;28;19931;-69
2022/09/27 16:07:27;;;;;;;;;;;;;;;;;;5029070;28;19923;-68
2022/09/27 16:09:54;;;;;;;;;;;;;;;;;;5033433;28;19952;-69
2022/09/27 16:12:20;;;;;;;;;;;;;;;;;;5033340;28;20281;-69
2022/09/27 16:14:46;;;;;;;;;;;;;;;;;;5032088;28;19912;-69
2022/09/27 16:17:12;;;;;;;;;;;;;;;;;;5027171;28;19991;-69
2022/09/27 16:19:38;;;;;;;;;;;;;;;;;;5031576;28;19992;-69
2022/09/27 16:22:04;;;;;;;;;;;;;;;;;;5034535;28;19909;-69
2022/09/27 16:24:30;;;;;;;;;;;;;;;;;;5033367;28;20442;-69
2022/09/27 16:26:56;;;;;;;;;;;;;;;;;;5032953;28;19913;-69
2022/09/27 16:29:22;;;;;;;;;;;;;;;;;;5033945;28;19951;-68
2022/09/27 16:31:49;;;;;;;;;;;;;;;;;;5033361;28;19999;-68
2022/09/27 16:34:15;;;;;;;;;;;;;;;;;;5032867;28;19916;-67
2022/09/27 16:36:41;;;;;;;;;;;;;;;;;;5030576;28;20024;-68
2022/09/27 16:39:08;;;;;;;;;;;;;;;;;;5031869;28;19999;-68
2022/09/27 16:41:35;;;;;;;;;;;;;;;;;;5015137;28;19909;-68
2022/09/27 16:44:01;;;;;;;;;;;;;;;;;;5033776;28;19920;-67
2022/09/27 16:46:28;;;;;;;;;;;;;;;;;;5033259;28;19909;-68